• Join FlightAware (Why Join?)
  • Login
  • US Flag 
11:30PM EDT


 

Airport Tracker/Info


-or-


 

Live Flight TrackerFlight Track Log ✈ DAL1041 ✈ 29-Jul-2013 ✈ KRIC - KATL

Flight Track Log - Related Links

Times and Time Zones

All times are in EDT time to prevent confusion due to time zone crossing. See the DAL1041 flight status page for this flight to view local times or setup timezone preferences in your user account.

Time Position Orientation Groundspeed Altitude Reporting Facility
EDT Latitude Longitude Course Direction KTS MPH feet Rate Location/Type
12:33PM 37.5500 -77.3500 255° West 202 232 2,300  Level Potomac TRACON
12:35PM 37.5331 -77.4642 259° West 252 290 5,500 2,580 Climbing Washington Center
12:36PM 37.3751 -77.8538 254° West  Level FlightAware Approximate
12:36PM 37.5086 -77.5528 251° West 262 302 8,700  Level Washington Center
12:37PM 37.3500 -77.9913 270° West  Level FlightAware Approximate
12:37PM 37.4842 -77.6411 251° West 267 307 10,800  Level Washington Center
12:38PM 37.3205 -78.1268 255° West  Level FlightAware Approximate
12:38PM 37.4553 -77.7475 251° West 294 338 12,000  Level Washington Center
12:39PM 37.2911 -78.2637 255° West  Level FlightAware Approximate
12:39PM 37.4194 -77.8719 250° West 341 392 14,100  Level Washington Center
12:40PM 37.3814 -78.0017 250° West 380 437 16,500 2,280 Climbing Washington Center
12:41PM 37.3414 -78.1336 249° West 399 459 18,800 1,680 Climbing Washington Center
12:42PM 37.3006 -78.2783 251° West 405 466 20,000 600 Climbing Washington Center
12:43PM 37.2828 -78.4136 261° West 405 466 20,000 660 Level Washington Center
12:44PM 37.2772 -78.5594 267° West 407 468 21,400 1,560 Climbing Washington Center
12:45PM 37.2739 -78.6900 268° West 412 474 23,200 1,860 Climbing Washington Center
12:46PM 37.2700 -78.8358 268° West 418 481 25,200 1,860 Climbing Washington Center
12:47PM 37.2639 -78.9817 267° West 418 481 26,900 1,620 Climbing Washington Center
12:48PM 37.2578 -79.1250 267° West 418 481 28,500 1,440 Climbing Washington Center
12:49PM 37.2472 -79.2681 265° West 418 481 29,800 720 Climbing Washington Center
12:50PM 37.2886 -79.4136 290° West 405 466 30,000 360 Climbing Washington Center
12:51PM 37.3556 -79.5294 306° West 398 458 30,600 1,020 Climbing Washington Center
12:52PM 37.4267 -79.6481 307° West 411 473 32,100 660 Climbing Washington Center
12:53PM 37.4733 -79.7525 299° West 406 467 32,000 -60 Descending Washington Center
12:54PM 37.4267 -79.8939 247° West 379 436 32,000  Level Washington Center
12:55PM 37.3403 -79.9753 217° Southwest 346 398 32,000  Level Washington Center
12:56PM 37.2533 -80.0669 220° Southwest 397 457 32,000  Level Washington Center
12:57PM 37.1828 -80.1417 220° Southwest 409 471 32,000  Level Atlanta Center
12:58PM 37.0942 -80.2372 221° Southwest 421 484 32,000  Level Atlanta Center
12:59PM 37.0153 -80.3189 220° Southwest 421 484 32,000  Level Atlanta Center
01:00PM 36.9372 -80.4264 228° Southwest 416 479 32,000  Level Atlanta Center
01:01PM 36.8589 -80.5286 226° Southwest 416 479 32,000  Level Atlanta Center
01:02PM 36.7786 -80.6333 226° Southwest 416 479 32,000  Level Atlanta Center
01:03PM 36.6942 -80.7483 228° Southwest 408 470 32,000  Level Atlanta Center
01:04PM 36.6175 -80.8547 228° Southwest 408 470 32,000  Level Atlanta Center
01:05PM 36.5369 -80.9589 226° Southwest 408 470 32,000  Level Atlanta Center
01:06PM 36.4581 -81.0625 227° Southwest 408 470 32,000  Level Atlanta Center
01:07PM 36.3750 -81.1689 226° Southwest 408 470 32,000  Level Atlanta Center
01:08PM 36.2961 -81.2719 226° Southwest 414 476 32,000  Level Atlanta Center
01:09PM 36.2150 -81.3778 226° Southwest 414 476 32,000  Level Atlanta Center
01:10PM 36.1358 -81.4833 227° Southwest 414 476 32,000  Level Atlanta Center
01:11PM 36.0506 -81.5939 226° Southwest 422 486 32,000  Level Atlanta Center
01:12PM 35.9672 -81.6989 226° Southwest 430 495 32,000  Level Atlanta Center
01:13PM 35.8878 -81.8036 227° Southwest 436 502 32,000  Level Atlanta Center
01:14PM 35.8042 -81.9111 226° Southwest 436 502 32,000  Level Atlanta Center
01:15PM 35.7225 -82.0156 226° Southwest 431 496 32,000  Level Atlanta Center
01:16PM 35.6467 -82.1094 225° Southwest 431 496 32,000  Level Atlanta Center
01:17PM 35.5669 -82.2133 227° Southwest 425 489 32,000  Level Atlanta Center
01:18PM 35.4850 -82.3172 226° Southwest 435 501 32,000 -300 Level Atlanta Center
01:19PM 35.4008 -82.4183 224° Southwest 435 501 31,400 -1,020 Descending Atlanta Center
01:20PM 35.3144 -82.5167 223° Southwest 425 489 30,000 -1,800 Descending Atlanta Center
01:21PM 35.2281 -82.6097 221° Southwest 420 483 27,900 -1,740 Descending Atlanta Center
01:22PM 35.1372 -82.7106 222° Southwest 420 483 26,600 -1,320 Descending Atlanta Center
01:23PM 35.0403 -82.8186 222° Southwest 430 495 25,300 -1,200 Descending Atlanta Center
01:24PM 34.9578 -82.9111 223° Southwest 430 495 24,300 -660 Descending Atlanta Center
01:25PM 34.8689 -82.9958 218° Southwest 416 479 24,000 -180 Descending Atlanta Center
01:26PM 34.7903 -83.0878 224° Southwest 402 463 24,000  Level Atlanta Center
01:27PM 34.7053 -83.1797 222° Southwest 402 463 24,000  Level Atlanta Center
01:28PM 34.6247 -83.2714 223° Southwest 407 468 24,000 -720 Level Atlanta Center
01:29PM 34.5394 -83.3606 221° Southwest 407 468 22,600 -1,620 Descending Atlanta Center
01:30PM 34.4586 -83.4467 221° Southwest 407 468 20,800 -1,980 Descending Atlanta Center
01:31PM 34.3775 -83.5303 220° Southwest 397 457 18,700 -2,100 Descending Atlanta Center
01:32PM 34.3006 -83.6114 221° Southwest 377 434 16,700 -2,160 Descending Atlanta Center
01:33PM 34.2258 -83.6944 223° Southwest 371 427 14,400 -2,040 Descending Atlanta Center
01:34PM 34.1592 -83.7628 220° Southwest 360 414 12,700 -1,200 Descending Atlanta Center
01:35PM 34.0883 -83.8431 223° Southwest 353 406 12,000 -1,020 Descending Atlanta Center
01:36PM 34.0092 -83.9008 211° Southwest 348 400 10,700 -1,020 Descending Atlanta Center
01:37PM 33.9214 -83.9511 205° Southwest 348 400 10,000 -600 Descending Atlanta Center
01:38PM 33.8361 -83.9814 196° South 332 382 9,600 -900 Descending Atlanta Center
01:39PM 33.7503 -84.0214 201° Southwest 304 350 8,300 -1,500 Descending Atlanta Center
01:40PM 33.6753 -84.0539 200° South 291 335 6,700 -1,260 Descending Atlanta Center
01:41PM 33.6333 -84.1333 238° Southwest 245 282 5,600 -1,140 Descending Atlanta TRACON
01:42PM 33.6333 -84.2000 270° West 220 253 4,200 -1,200 Descending Atlanta TRACON
01:43PM 33.6333 -84.2833 270° West 209 241 3,200 -1,020 Descending Atlanta TRACON
01:44PM 33.6333 -84.3333 270° West 185 213 2,200 -900 Descending Atlanta TRACON
01:45PM 33.6333 -84.4000 270° West 146 168 1,400 -840 Descending Atlanta TRACON